createdAt,value
2023-02-06T00:01:35.452Z,5.35
2023-02-06T00:04:02.798Z,6.50
2023-02-06T00:06:29.888Z,5.15
2023-02-06T00:08:56.978Z,4.45
2023-02-06T00:11:24.788Z,5.53
2023-02-06T00:13:52.195Z,5.30
2023-02-06T00:16:20.987Z,5.68
2023-02-06T00:18:49.323Z,4.40
2023-02-06T00:21:20.582Z,3.97
2023-02-06T00:23:49.111Z,4.50
2023-02-06T00:26:16.233Z,6.18
2023-02-06T00:28:44.123Z,5.03
2023-02-06T00:31:11.309Z,5.13
2023-02-06T00:33:38.599Z,5.22
2023-02-06T00:36:06.198Z,4.38
2023-02-06T00:38:33.616Z,4.22
2023-02-06T00:41:00.669Z,6.50
2023-02-06T00:43:27.830Z,5.25
2023-02-06T00:45:56.157Z,5.95
2023-02-06T00:48:24.372Z,5.35
2023-02-06T00:50:53.144Z,5.05
2023-02-06T00:53:20.439Z,4.15
2023-02-06T00:55:47.483Z,4.18
2023-02-06T00:58:14.528Z,4.55
2023-02-06T01:00:41.597Z,4.22
2023-02-06T01:03:08.785Z,6.50
2023-02-06T01:05:36.139Z,4.40
2023-02-06T01:08:04.597Z,4.95
2023-02-06T01:10:33.007Z,5.00
2023-02-06T01:13:00.504Z,4.70
2023-02-06T01:15:27.756Z,4.72
2023-02-06T01:17:54.768Z,4.85
2023-02-06T01:20:23.260Z,5.25
2023-02-06T01:22:51.008Z,4.80
2023-02-06T01:25:18.095Z,3.60
2023-02-06T01:27:45.358Z,5.53
2023-02-06T01:30:12.943Z,4.40
2023-02-06T01:32:41.388Z,4.10
2023-02-06T01:35:10.746Z,5.38
2023-02-06T01:37:38.847Z,4.15
2023-02-06T01:40:08.684Z,4.97
2023-02-06T01:42:37.446Z,4.80
2023-02-06T01:45:32.204Z,4.78
2023-02-06T01:48:10.378Z,5.10
2023-02-06T01:50:39.408Z,4.18
2023-02-06T01:53:07.838Z,5.55
2023-02-06T01:55:37.606Z,5.25
2023-02-06T01:58:06.135Z,4.63
2023-02-06T02:00:33.809Z,4.05
2023-02-06T02:03:02.281Z,5.68
2023-02-06T02:05:30.229Z,4.53
2023-02-06T02:08:02.390Z,5.30
2023-02-06T02:10:31.063Z,4.57
2023-02-06T02:12:58.906Z,4.90
2023-02-06T02:16:00.376Z,5.63
2023-02-06T02:18:33.539Z,5.70
2023-02-06T02:21:18.967Z,6.07
2023-02-06T02:24:31.712Z,4.70
2023-02-06T02:27:30.060Z,5.97
2023-02-06T02:30:35.024Z,5.40
2023-02-06T02:33:08.283Z,5.45
2023-02-06T02:36:01.595Z,4.45
2023-02-06T02:38:46.735Z,5.63
2023-02-06T02:41:22.248Z,5.38
2023-02-06T02:44:19.149Z,3.92
2023-02-06T02:46:52.520Z,5.13
2023-02-06T02:49:24.631Z,4.50
2023-02-06T02:51:53.317Z,5.68
2023-02-06T02:54:20.496Z,5.10
2023-02-06T02:56:47.553Z,5.85
2023-02-06T02:59:29.454Z,5.45
2023-02-06T03:01:59.172Z,5.18
2023-02-06T03:04:35.439Z,6.22
2023-02-06T03:07:10.400Z,5.68
2023-02-06T03:09:45.645Z,5.22
2023-02-06T03:12:31.155Z,5.40
2023-02-06T03:15:04.253Z,5.28
2023-02-06T03:17:41.174Z,4.85
2023-02-06T03:20:10.907Z,4.70
2023-02-06T03:22:39.054Z,4.70
2023-02-06T03:25:12.674Z,6.00
2023-02-06T03:27:42.859Z,6.00
2023-02-06T03:30:12.454Z,6.10
2023-02-06T03:32:46.582Z,6.32
2023-02-06T03:35:29.650Z,6.65
2023-02-06T03:37:56.880Z,6.00
2023-02-06T03:40:26.880Z,5.10
2023-02-06T03:42:59.008Z,4.75
2023-02-06T03:45:38.679Z,5.75
2023-02-06T03:48:15.281Z,5.70
2023-02-06T03:50:44.592Z,4.53
2023-02-06T03:53:13.994Z,4.97
2023-02-06T03:55:43.421Z,5.15
2023-02-06T03:58:14.335Z,5.00
2023-02-06T04:00:44.206Z,6.15
2023-02-06T04:03:13.316Z,4.57
2023-02-06T04:05:40.852Z,4.78
2023-02-06T04:08:08.212Z,4.85
2023-02-06T04:10:35.235Z,6.88
2023-02-06T04:13:02.268Z,4.18
2023-02-06T04:15:29.349Z,5.35
2023-02-06T04:18:01.533Z,7.05
2023-02-06T04:20:29.827Z,6.10
2023-02-06T04:22:58.368Z,5.10
2023-02-06T04:25:25.960Z,5.57
2023-02-06T04:27:53.106Z,5.72
2023-02-06T04:30:20.153Z,5.68
2023-02-06T04:32:47.239Z,5.75
2023-02-06T04:35:14.223Z,5.47
2023-02-06T04:37:41.315Z,6.97
2023-02-06T04:40:08.725Z,6.35
2023-02-06T04:42:35.972Z,5.45
2023-02-06T04:45:03.059Z,6.03
2023-02-06T04:47:30.096Z,5.50
2023-02-06T04:49:57.093Z,6.32
2023-02-06T04:52:24.140Z,6.32
2023-02-06T04:54:51.170Z,6.68
2023-02-06T04:57:18.235Z,5.72
2023-02-06T04:59:45.401Z,6.05
2023-02-06T05:02:12.512Z,6.25
2023-02-06T05:04:39.674Z,6.70
2023-02-06T05:07:06.759Z,7.32
2023-02-06T05:09:33.764Z,6.00
2023-02-06T05:15:41.347Z,7.65
2023-02-06T05:18:44.859Z,5.90
2023-02-06T05:21:30.165Z,5.88
2023-02-06T05:23:57.230Z,6.03
2023-02-06T05:26:24.270Z,7.93
2023-02-06T05:28:51.412Z,5.88
2023-02-06T05:31:20.137Z,6.57
2023-02-06T05:33:52.770Z,6.30
2023-02-06T05:39:48.822Z,6.63
2023-02-06T05:42:15.850Z,5.75
2023-02-06T05:44:42.898Z,6.43
2023-02-06T05:47:10.016Z,7.05
2023-02-06T05:49:37.095Z,7.18
2023-02-06T05:52:04.273Z,5.88
2023-02-06T05:54:31.294Z,7.00
2023-02-06T05:56:58.362Z,5.90
2023-02-06T05:59:25.569Z,5.72
2023-02-06T06:01:52.684Z,6.15
2023-02-06T06:04:19.819Z,6.80
2023-02-06T06:06:46.981Z,5.38
2023-02-06T06:09:14.016Z,5.68
2023-02-06T06:11:41.063Z,5.47
2023-02-06T06:14:08.247Z,5.00
2023-02-06T06:16:35.324Z,6.20
2023-02-06T06:19:02.350Z,5.90
2023-02-06T06:21:29.394Z,5.22
2023-02-06T06:23:56.447Z,6.10
2023-02-06T06:26:23.462Z,5.40
2023-02-06T06:28:50.524Z,5.07
2023-02-06T06:31:17.927Z,6.22
2023-02-06T06:33:45.876Z,5.63
2023-02-06T06:36:14.572Z,6.47
2023-02-06T06:38:42.151Z,4.70
2023-02-06T06:41:09.214Z,5.68
2023-02-06T06:43:36.339Z,4.95
2023-02-06T06:46:05.474Z,5.50
2023-02-06T06:48:33.260Z,6.20
2023-02-06T06:51:00.320Z,5.95
2023-02-06T06:53:27.327Z,6.13
2023-02-06T06:55:54.412Z,6.07
2023-02-06T06:58:21.513Z,6.10
2023-02-06T07:00:48.771Z,5.50
2023-02-06T07:03:15.870Z,5.70
2023-02-06T07:05:43.029Z,5.32
2023-02-06T07:08:10.270Z,6.07
2023-02-06T07:10:37.276Z,6.53
2023-02-06T07:13:04.584Z,6.05
2023-02-06T07:15:31.902Z,6.22
2023-02-06T07:17:58.957Z,5.20
2023-02-06T07:20:26.042Z,5.60
2023-02-06T07:22:53.764Z,6.45
2023-02-06T07:25:21.555Z,5.30
2023-02-06T07:27:48.646Z,4.80
2023-02-06T07:30:15.839Z,5.20
2023-02-06T07:32:42.868Z,6.50
2023-02-06T07:35:09.979Z,5.40
2023-02-06T07:37:37.059Z,6.68
2023-02-06T07:40:05.659Z,5.82
2023-02-06T07:42:33.868Z,5.15
2023-02-06T07:45:01.202Z,5.30
2023-02-06T07:47:28.217Z,7.00
2023-02-06T07:49:55.195Z,7.32
2023-02-06T07:52:22.652Z,5.47
2023-02-06T07:54:49.702Z,5.90
2023-02-06T07:57:17.728Z,4.97
2023-02-06T07:59:44.836Z,5.78
2023-02-06T08:02:12.831Z,6.22
2023-02-06T08:04:40.066Z,5.30
2023-02-06T08:07:11.275Z,5.68
2023-02-06T08:09:38.347Z,6.38
2023-02-06T08:15:46.475Z,5.80
2023-02-06T08:18:13.438Z,5.47
2023-02-06T08:20:40.549Z,5.80
2023-02-06T08:23:08.394Z,6.35
2023-02-06T08:25:35.861Z,5.53
2023-02-06T08:28:03.238Z,6.45
2023-02-06T08:30:32.694Z,5.93
2023-02-06T08:32:59.733Z,6.20
2023-02-06T08:35:26.739Z,5.28
2023-02-06T08:37:53.783Z,5.45
2023-02-06T08:40:21.440Z,5.93
2023-02-06T08:42:51.781Z,6.43
2023-02-06T08:45:18.940Z,6.07
2023-02-06T08:47:46.000Z,7.10
2023-02-06T08:50:13.161Z,6.30
2023-02-06T08:52:40.554Z,6.22
2023-02-06T08:55:08.358Z,6.60
2023-02-06T08:57:35.459Z,5.40
2023-02-06T09:00:02.715Z,6.60
2023-02-06T09:02:29.851Z,6.07
2023-02-06T09:04:56.899Z,5.40
2023-02-06T09:07:24.742Z,7.50
2023-02-06T09:09:51.760Z,6.65
2023-02-06T09:12:18.856Z,6.95
2023-02-06T09:14:46.127Z,6.05
2023-02-06T09:17:13.311Z,5.72
2023-02-06T09:19:40.382Z,6.25
2023-02-06T09:22:07.440Z,6.70
2023-02-06T09:24:34.478Z,6.05
2023-02-06T09:27:01.519Z,6.03
2023-02-06T09:29:31.951Z,7.32
2023-02-06T09:31:59.645Z,7.22
2023-02-06T09:34:27.385Z,5.68
2023-02-06T09:36:56.934Z,6.00
2023-02-06T09:39:25.184Z,6.57
2023-02-06T09:42:03.607Z,5.97
2023-02-06T09:44:51.416Z,5.80
2023-02-06T09:47:24.777Z,6.20
2023-02-06T09:50:08.232Z,6.18
2023-02-06T09:52:53.769Z,5.13
2023-02-06T09:55:36.379Z,6.57
2023-02-06T09:58:26.958Z,6.53
2023-02-06T10:01:03.422Z,5.97
2023-02-06T10:03:54.835Z,6.03
2023-02-06T10:06:36.192Z,6.55
2023-02-06T10:09:08.305Z,4.85
2023-02-06T10:11:43.315Z,7.22
2023-02-06T10:14:24.841Z,5.90
2023-02-06T10:17:06.075Z,5.97
2023-02-06T10:20:07.115Z,6.13
2023-02-06T10:23:03.640Z,5.47
2023-02-06T10:25:38.148Z,5.47
2023-02-06T10:28:24.738Z,5.85
2023-02-06T10:30:57.998Z,5.63
2023-02-06T10:33:36.392Z,6.10
2023-02-06T10:36:21.820Z,6.95
2023-02-06T10:39:10.425Z,6.10
2023-02-06T10:42:04.115Z,5.55
2023-02-06T10:45:19.633Z,5.85
2023-02-06T10:48:10.879Z,6.30
2023-02-06T10:51:00.391Z,5.55
2023-02-06T10:53:34.102Z,6.25
2023-02-06T10:56:08.560Z,5.97
2023-02-06T10:58:48.161Z,6.50
2023-02-06T11:01:26.189Z,6.53
2023-02-06T11:04:12.602Z,5.80
2023-02-06T11:06:42.561Z,6.75
2023-02-06T11:09:10.776Z,6.15
2023-02-06T11:11:41.382Z,5.63
2023-02-06T11:14:17.274Z,5.65
2023-02-06T11:16:46.350Z,5.15
2023-02-06T11:19:18.634Z,6.65
2023-02-06T11:21:51.046Z,5.55
2023-02-06T11:24:21.873Z,5.70
2023-02-06T11:26:52.333Z,6.07
2023-02-06T11:29:26.193Z,5.57
2023-02-06T11:31:58.733Z,5.45
2023-02-06T11:34:28.558Z,6.18
2023-02-06T11:37:02.258Z,5.35
2023-02-06T11:39:40.005Z,6.18
2023-02-06T11:42:21.544Z,5.60
2023-02-06T11:44:49.747Z,5.22
2023-02-06T11:47:37.430Z,5.88
2023-02-06T11:50:14.242Z,6.22
2023-02-06T11:52:46.643Z,6.35
2023-02-06T11:55:36.948Z,5.18
2023-02-06T11:58:12.850Z,6.63
2023-02-06T12:01:04.398Z,5.70
2023-02-06T12:03:38.939Z,5.93
2023-02-06T12:06:09.120Z,6.38
2023-02-06T12:08:51.863Z,6.10
2023-02-06T12:11:46.531Z,6.55
2023-02-06T12:14:17.624Z,6.53
2023-02-06T12:16:47.249Z,5.15
2023-02-06T12:19:20.411Z,6.53
2023-02-06T12:22:02.619Z,6.20
2023-02-06T12:24:45.534Z,7.07
2023-02-06T12:27:18.773Z,5.20
2023-02-06T12:30:03.268Z,5.30
2023-02-06T12:32:37.815Z,4.88
2023-02-06T12:35:21.211Z,6.75
2023-02-06T12:38:00.296Z,6.53
2023-02-06T12:40:42.300Z,6.20
2023-02-06T12:43:14.662Z,5.95
2023-02-06T12:45:50.456Z,6.10
2023-02-06T12:49:02.493Z,6.72
2023-02-06T12:51:43.004Z,5.80
2023-02-06T12:54:30.492Z,5.90
2023-02-06T12:57:15.574Z,5.78
2023-02-06T12:59:58.186Z,5.75
2023-02-06T13:03:10.911Z,6.47
2023-02-06T13:06:13.030Z,5.47
2023-02-06T13:08:59.248Z,5.97
2023-02-06T13:11:40.783Z,5.72
2023-02-06T13:14:21.936Z,5.70
2023-02-06T13:16:59.940Z,6.75
2023-02-06T13:19:31.894Z,6.60
2023-02-06T13:22:11.295Z,7.18
2023-02-06T13:24:40.661Z,5.82
2023-02-06T13:27:07.667Z,4.88
2023-02-06T13:29:40.096Z,7.03
2023-02-06T13:32:18.275Z,5.72
2023-02-06T13:35:02.380Z,5.55
2023-02-06T13:37:41.305Z,5.53
2023-02-06T13:40:32.587Z,6.05
2023-02-06T13:43:04.383Z,5.97
2023-02-06T13:45:37.456Z,4.95
2023-02-06T13:48:22.777Z,6.88
2023-02-06T13:51:17.564Z,6.05
2023-02-06T13:54:09.353Z,6.95
2023-02-06T13:56:42.328Z,7.47
2023-02-06T13:59:18.080Z,5.50
2023-02-06T14:01:45.713Z,9.38
2023-02-06T14:04:23.917Z,8.05
2023-02-06T14:07:30.427Z,6.65
2023-02-06T14:10:29.773Z,6.18
2023-02-06T14:13:25.406Z,5.72
2023-02-06T14:16:18.858Z,5.10
2023-02-06T14:18:53.821Z,5.10
2023-02-06T14:21:35.950Z,4.82
2023-02-06T14:24:28.120Z,5.63
2023-02-06T14:27:08.157Z,5.53
2023-02-06T14:29:53.162Z,4.68
2023-02-06T14:32:57.177Z,5.25
2023-02-06T14:35:49.096Z,5.50
2023-02-06T14:38:28.163Z,4.95
2023-02-06T14:40:59.817Z,5.40
2023-02-06T14:43:30.441Z,5.70
2023-02-06T14:46:07.506Z,5.10
2023-02-06T14:48:57.594Z,7.05
2023-02-06T14:51:37.306Z,6.10
2023-02-06T14:54:07.076Z,6.82
2023-02-06T14:56:39.066Z,6.32
2023-02-06T14:59:24.135Z,5.10
2023-02-06T15:01:53.983Z,6.15
2023-02-06T15:04:26.468Z,5.60
2023-02-06T15:07:02.204Z,6.28
2023-02-06T15:09:36.041Z,6.07
2023-02-06T15:12:24.281Z,6.47
2023-02-06T15:14:55.259Z,6.85
2023-02-06T15:17:27.013Z,6.38
2023-02-06T15:19:54.543Z,5.88
2023-02-06T15:22:29.516Z,6.60
2023-02-06T15:25:23.794Z,6.38
2023-02-06T15:28:02.224Z,7.00
2023-02-06T15:30:30.166Z,7.18
2023-02-06T15:32:57.485Z,7.72
2023-02-06T15:35:32.472Z,9.02
2023-02-06T15:38:14.120Z,7.07
2023-02-06T15:41:09.007Z,8.50
2023-02-06T15:43:36.689Z,7.20
2023-02-06T15:46:05.374Z,6.93
2023-02-06T15:48:54.048Z,7.65
2023-02-06T15:51:31.027Z,7.35
2023-02-06T15:54:17.911Z,7.65
2023-02-06T15:56:50.933Z,7.72
2023-02-06T15:59:24.462Z,8.00
2023-02-06T16:01:54.583Z,9.10
2023-02-06T16:04:35.310Z,15.20
2023-02-06T16:07:11.133Z,10.00
2023-02-06T16:09:56.953Z,8.55
2023-02-06T16:12:25.087Z,8.60
2023-02-06T16:14:57.295Z,8.05
2023-02-06T16:17:36.663Z,7.35
2023-02-06T16:20:07.739Z,11.27
2023-02-06T16:22:38.036Z,10.90
2023-02-06T16:25:32.603Z,8.10
2023-02-06T16:28:00.692Z,8.27
2023-02-06T16:30:34.255Z,6.50
2023-02-06T16:33:16.803Z,6.90
2023-02-06T16:35:44.349Z,6.95
2023-02-06T16:38:11.535Z,7.18
2023-02-06T16:40:39.504Z,7.00
2023-02-06T16:43:12.249Z,6.55
2023-02-06T16:45:39.361Z,6.10
2023-02-06T16:48:12.872Z,7.13
2023-02-06T16:50:41.734Z,6.60
2023-02-06T16:53:18.767Z,6.53
2023-02-06T16:55:46.448Z,6.72
2023-02-06T16:58:22.122Z,7.95
2023-02-06T17:00:51.051Z,7.53
2023-02-06T17:03:18.714Z,8.52
2023-02-06T17:05:48.832Z,8.10
2023-02-06T17:08:19.560Z,8.35
2023-02-06T17:10:47.354Z,8.82
2023-02-06T17:13:17.264Z,8.25
2023-02-06T17:15:47.175Z,7.47
2023-02-06T17:18:17.336Z,7.28
2023-02-06T17:20:48.902Z,7.80
2023-02-06T17:23:16.255Z,9.50
2023-02-06T17:25:45.181Z,8.05
2023-02-06T17:28:16.249Z,8.60
2023-02-06T17:30:44.763Z,9.40
2023-02-06T17:33:12.403Z,11.48
2023-02-06T17:35:41.830Z,11.90
2023-02-06T17:38:10.349Z,10.75
2023-02-06T17:40:40.529Z,10.88
2023-02-06T17:43:08.512Z,11.55
2023-02-06T17:45:40.048Z,11.52
2023-02-06T17:48:08.248Z,13.25
2023-02-06T17:50:37.772Z,11.63
2023-02-06T17:53:07.385Z,12.50
2023-02-06T17:55:36.485Z,12.52
2023-02-06T17:58:04.695Z,10.85
2023-02-06T18:00:32.761Z,11.48
2023-02-06T18:03:00.623Z,13.30
2023-02-06T18:05:28.150Z,15.23
2023-02-06T18:07:55.721Z,15.10
2023-02-06T18:10:26.095Z,15.25
2023-02-06T18:12:53.894Z,14.23
2023-02-06T18:15:22.069Z,11.77
2023-02-06T18:17:49.908Z,10.63
2023-02-06T18:20:18.434Z,11.93
2023-02-06T18:22:47.063Z,12.85
2023-02-06T18:25:15.997Z,12.35
2023-02-06T18:27:46.665Z,11.57
2023-02-06T18:30:15.825Z,14.40
2023-02-06T18:32:43.682Z,11.45
2023-02-06T18:35:11.882Z,9.07
2023-02-06T18:37:39.756Z,12.95
2023-02-06T18:40:09.255Z,16.25
2023-02-06T18:42:52.650Z,17.25
2023-02-06T18:45:25.859Z,14.10
2023-02-06T18:47:53.430Z,10.48
2023-02-06T18:50:22.478Z,10.13
2023-02-06T18:52:51.214Z,11.35
2023-02-06T18:55:19.375Z,10.80
2023-02-06T18:57:47.987Z,10.00
2023-02-06T19:00:18.868Z,9.43
2023-02-06T19:02:47.008Z,13.40
2023-02-06T19:05:15.012Z,14.40
2023-02-06T19:07:42.647Z,13.73
2023-02-06T19:10:13.654Z,12.55
2023-02-06T19:12:41.657Z,11.32
2023-02-06T19:15:10.252Z,12.05
2023-02-06T19:17:38.377Z,10.30
2023-02-06T19:20:07.062Z,10.48
2023-02-06T19:22:36.378Z,10.05
2023-02-06T19:25:07.141Z,9.02
2023-02-06T19:27:36.742Z,10.13
2023-02-06T19:30:05.427Z,9.85
2023-02-06T19:32:33.620Z,9.35
2023-02-06T19:35:01.614Z,9.80
2023-02-06T19:37:28.987Z,8.95
2023-02-06T19:39:56.866Z,9.32
2023-02-06T19:42:26.109Z,11.88
2023-02-06T19:44:57.230Z,10.65
2023-02-06T19:47:25.210Z,10.60
2023-02-06T19:49:53.838Z,11.15
2023-02-06T19:52:21.815Z,14.52
2023-02-06T19:54:49.266Z,9.68
2023-02-06T19:57:19.851Z,11.40
2023-02-06T19:59:50.940Z,10.18
2023-02-06T20:02:18.925Z,10.93
2023-02-06T20:04:46.464Z,10.80
2023-02-06T20:07:18.909Z,11.13
2023-02-06T20:09:46.578Z,10.90
2023-02-06T20:12:17.339Z,10.70
2023-02-06T20:14:45.351Z,10.45
2023-02-06T20:17:13.601Z,10.70
2023-02-06T20:19:41.417Z,9.85
2023-02-06T20:22:09.576Z,9.63
2023-02-06T20:24:37.412Z,9.60
2023-02-06T20:27:08.411Z,11.15
2023-02-06T20:29:43.479Z,10.15
2023-02-06T20:32:12.707Z,7.47
2023-02-06T20:34:43.632Z,8.85
2023-02-06T20:37:11.495Z,9.25
2023-02-06T20:39:39.475Z,10.00
2023-02-06T20:42:09.002Z,10.27
2023-02-06T20:44:36.488Z,12.02
2023-02-06T20:47:04.067Z,12.52
2023-02-06T20:49:31.894Z,13.23
2023-02-06T20:51:59.861Z,15.02
2023-02-06T20:54:28.107Z,13.38
2023-02-06T20:56:56.696Z,13.55
2023-02-06T20:59:24.370Z,13.20
2023-02-06T21:01:51.893Z,13.40
2023-02-06T21:04:20.101Z,12.40
2023-02-06T21:06:51.261Z,16.60
2023-02-06T21:09:20.253Z,12.98
2023-02-06T21:11:50.199Z,13.40
2023-02-06T21:14:18.441Z,12.70
2023-02-06T21:16:46.102Z,11.70
2023-02-06T21:19:15.759Z,11.48
2023-02-06T21:21:46.072Z,10.93
2023-02-06T21:24:14.432Z,11.43
2023-02-06T21:26:41.574Z,10.90
2023-02-06T21:29:10.280Z,11.05
2023-02-06T21:31:38.966Z,11.95
2023-02-06T21:34:16.269Z,13.25
2023-02-06T21:36:44.165Z,11.55
2023-02-06T21:39:19.502Z,11.73
2023-02-06T21:41:47.676Z,13.57
2023-02-06T21:44:14.776Z,16.27
2023-02-06T21:46:44.970Z,13.25
2023-02-06T21:49:12.900Z,13.10
2023-02-06T21:51:40.233Z,12.95
2023-02-06T21:54:07.772Z,11.90
2023-02-06T21:56:38.367Z,12.38
2023-02-06T21:59:07.304Z,11.63
2023-02-06T22:01:34.661Z,12.32
2023-02-06T22:04:03.629Z,12.13
2023-02-06T22:06:31.118Z,11.40
2023-02-06T22:09:05.549Z,13.65
2023-02-06T22:11:33.587Z,13.15
2023-02-06T22:14:05.898Z,14.00
2023-02-06T22:16:33.647Z,12.88
2023-02-06T22:19:03.372Z,12.10
2023-02-06T22:21:32.181Z,13.68
2023-02-06T22:24:05.583Z,13.93
2023-02-06T22:26:36.941Z,13.10
2023-02-06T22:29:05.010Z,12.40
2023-02-06T22:31:34.360Z,13.75
2023-02-06T22:34:01.796Z,13.20
2023-02-06T22:36:33.374Z,12.30
2023-02-06T22:39:04.429Z,13.65
2023-02-06T22:41:31.471Z,14.50
2023-02-06T22:43:58.936Z,14.07
2023-02-06T22:46:29.260Z,12.65
2023-02-06T22:48:56.784Z,12.95
2023-02-06T22:51:24.545Z,12.40
2023-02-06T22:53:52.306Z,13.40
2023-02-06T22:56:31.446Z,13.60
2023-02-06T22:59:20.243Z,11.95
2023-02-06T23:01:50.806Z,11.82
2023-02-06T23:04:21.897Z,14.02
2023-02-06T23:06:50.051Z,13.98
2023-02-06T23:09:23.652Z,12.45
2023-02-06T23:11:51.496Z,14.05
2023-02-06T23:14:19.228Z,13.35
2023-02-06T23:16:47.136Z,13.88
2023-02-06T23:19:15.112Z,14.50
2023-02-06T23:21:44.403Z,15.23
2023-02-06T23:24:12.212Z,12.60
2023-02-06T23:26:42.390Z,15.73
2023-02-06T23:29:15.848Z,14.05
2023-02-06T23:31:43.560Z,14.77
2023-02-06T23:34:11.146Z,15.63
2023-02-06T23:36:38.205Z,14.88
2023-02-06T23:39:06.191Z,15.10
2023-02-06T23:41:34.138Z,16.17
2023-02-06T23:44:04.871Z,16.50
2023-02-06T23:46:34.805Z,14.45
2023-02-06T23:49:02.293Z,15.55
2023-02-06T23:51:29.920Z,16.60
2023-02-06T23:53:57.126Z,15.30
2023-02-06T23:56:27.255Z,14.57
2023-02-06T23:58:55.539Z,15.00
